Latest Weather Observations for Shepparton

IDV60801

Issued at 8:32 pm EDT Thursday 3 December 2020 (issued every 10 minutes, with the page automatically refreshed every 10 minutes)

About weather observations | Map of weather stations | Latest weather observations for VIC | Other Formats
Station Details ID: 081125 Name: SHEPPARTON AIRPORT Lat: -36.43 Lon: 145.39 Height: 113.9 m
Data from the previous 72 hours. | See also: Recent months at Shepparton
Date/Time
EDT
Temp
°C
App
Temp
°C
Dew
Point
°C
Rel
Hum
%
Delta-T
°C
Wind Press
QNH
hPa
Press
MSL
hPa
Rain since
9am
mm
Dir  Spd
km/h
Gust
km/h
Spd
kts
Gust
kts
03/08:30pm 22.0 19.0 1.1 25 9.6 SW 6 6 3 3 1015.8 1015.4 0.0
03/08:00pm 25.1 21.4 -2.5 16 12.2 SW 7 9 4 5 1015.8 1015.4 0.0
03/07:30pm 26.3 21.5 -2.4 15 12.8 SW 13 20 7 11 1016.0 1015.6 0.0
03/07:00pm 26.9 22.1 -2.8 14 13.2 WSW 13 22 7 12 1016.0 1015.6 0.0
03/06:30pm 27.3 22.6 -1.6 15 13.2 SSW 13 22 7 12 1016.0 1015.6 0.0
03/06:00pm 27.5 23.1 -2.3 14 13.5 SW 11 20 6 11 1016.2 1015.8 0.0
03/05:30pm 27.8 23.4 -2.1 14 13.6 SW 11 24 6 13 1016.7 1016.3 0.0
03/05:00pm 26.9 22.3 -1.0 16 12.8 W 13 22 7 12 1017.0 1016.6 0.0
03/04:30pm 27.3 22.6 0.9 18 12.6 WSW 15 24 8 13 1017.4 1017.1 0.0
03/04:00pm 26.9 22.6 1.3 19 12.3 W 13 20 7 11 1017.5 1017.2 0.0
03/03:30pm 26.9 22.8 2.1 20 12.1 WSW 13 22 7 12 1017.9 1017.6 0.0
03/03:00pm 26.1 21.9 1.4 20 11.8 SW 13 24 7 13 1018.3 1018.0 0.0
03/02:30pm 25.2 20.3 2.0 22 11.2 SW 17 24 9 13 1018.8 1018.5 0.0
03/02:00pm 24.6 20.0 1.5 22 10.9 W 15 26 8 14 1019.5 1019.1 0.0
03/01:30pm 25.0 20.5 2.4 23 10.9 WSW 15 26 8 14 1020.0 1019.6 0.0
03/01:00pm 23.5 19.1 2.9 26 9.9 WNW 15 22 8 12 1020.3 1019.9 0.0
03/12:30pm 23.6 20.3 4.5 29 9.5 NW 11 19 6 10 1020.6 1020.2 0.0
03/12:00pm 22.5 18.8 4.5 31 8.9 WSW 13 24 7 13 1021.2 1020.8 0.0
03/11:30am 21.3 17.0 3.5 31 8.6 SW 15 24 8 13 1021.6 1021.2 0.0
03/11:00am 21.1 18.2 4.6 34 8.1 SSE 9 15 5 8 1022.1 1021.7 0.0
03/10:30am 19.7 16.8 4.6 37 7.3 WNW 9 17 5 9 1022.4 1022.0 0.0
03/10:00am 19.0 16.6 5.1 40 6.8 WSW 7 9 4 5 1022.6 1022.2 0.0
03/09:30am 18.1 15.9 6.3 46 5.9 SSE 7 11 4 6 1022.7 1022.3 0.0
03/09:00am 16.1 14.1 6.3 52 4.8 SSW 6 9 3 5 1022.9 1022.5 0.0
03/08:30am 15.1 12.6 6.4 56 4.2 S 9 11 5 6 1022.7 1022.3 0.0
03/08:00am 14.1 10.9 6.7 61 3.6 S 13 17 7 9 1022.5 1022.1 0.0
03/07:30am 11.9 9.9 7.0 72 2.4 SW 7 9 4 5 1022.4 1022.0 0.0
03/07:00am 10.4 8.5 6.9 79 1.7 SSW 6 7 3 4 1022.2 1021.8 0.0
03/06:30am 8.7 6.8 6.5 86 1.0 SSW 6 7 3 4 1021.9 1021.5 0.0
03/06:00am 8.1 5.8 5.9 86 1.0 SSW 7 9 4 5 1021.7 1021.3 0.0
03/05:30am 7.5 5.2 5.0 84 1.1 SSW 6 7 3 4 1021.1 1020.7 0.0
03/05:00am 8.9 6.3 6.0 82 1.3 SSW 9 15 5 8 1020.4 1020.0 0.0
03/04:30am 8.7 5.7 6.0 83 1.2 SSW 11 15 6 8 1020.2 1019.8 0.0
03/04:00am 9.3 6.7 5.9 79 1.6 SW 9 13 5 7 1020.4 1020.0 0.0
03/03:30am 9.6 6.6 6.0 78 1.7 SSW 11 13 6 7 1020.3 1019.9 0.0
03/03:00am 9.5 6.5 6.0 79 1.6 SSW 11 17 6 9 1020.6 1020.2 0.0
03/02:30am 9.8 7.1 5.4 74 2.0 SSW 9 11 5 6 1020.9 1020.5 0.0
03/02:00am 10.5 7.7 5.3 70 2.4 SSW 9 13 5 7 1021.1 1020.7 0.0
03/01:30am 11.8 7.9 5.2 64 3.1 S 15 19 8 10 1021.4 1021.0 0.0
03/01:00am 12.7 8.8 5.4 61 3.4 S 15 20 8 11 1021.7 1021.3 0.0
03/12:30am 12.4 8.4 4.9 60 3.5 SSW 15 19 8 10 1022.3 1021.9 0.0
03/12:00am 11.5 8.2 4.7 63 3.1 SSW 11 13 6 7 1022.5 1022.1 0.0
 
Date/Time
EDT
Temp
°C
App
Temp
°C
Dew
Point
°C
Rel
Hum
%
Delta-T
°C
Wind Press
QNH
hPa
Press
MSL
hPa
Rain since
9am
mm
Dir  Spd
km/h
Gust
km/h
Spd
kts
Gust
kts
02/11:30pm 12.6 10.1 4.8 59 3.6 S 7 11 4 6 1022.7 1022.3 0.0
02/11:00pm 12.9 9.9 4.3 56 3.9 S 9 13 5 7 1022.7 1022.3 0.0
02/10:30pm 15.1 10.7 4.8 50 4.9 S 17 20 9 11 1022.8 1022.4 0.0
02/10:00pm 15.9 11.8 4.6 47 5.3 SSE 15 22 8 12 1022.8 1022.4 0.0
02/09:30pm 16.6 11.7 4.3 44 5.8 SSE 19 30 10 16 1022.5 1022.1 0.0
02/09:00pm 17.6 13.0 3.5 39 6.6 S 17 24 9 13 1022.1 1021.7 0.0
02/08:30pm 18.3 13.9 2.6 35 7.2 S 15 22 8 12 1022.0 1021.6 0.0
02/08:00pm 19.6 14.2 2.5 32 7.9 SSW 20 30 11 16 1021.8 1021.4 0.0
02/07:30pm 20.7 14.8 2.0 29 8.7 SSW 22 28 12 15 1021.7 1021.3 0.0
02/07:00pm 21.5 16.0 1.7 27 9.2 SSW 20 28 11 15 1021.4 1021.0 0.0
02/06:30pm 21.8 16.2 0.9 25 9.6 SSW 20 30 11 16 1021.2 1020.8 0.0
02/06:00pm 22.5 17.0 0.9 24 9.9 SSW 19 30 10 16 1021.0 1020.6 0.0
02/05:30pm 22.6 17.2 1.0 24 10.0 SSW 19 30 10 16 1020.9 1020.5 0.0
02/05:00pm 22.6 16.2 1.0 24 10.0 SW 24 32 13 17 1021.1 1020.7 0.0
02/04:30pm 22.5 17.0 0.4 23 10.1 SSW 19 32 10 17 1021.3 1020.9 0.0
02/04:00pm 22.7 16.7 1.1 24 10.0 SSW 22 32 12 17 1021.5 1021.1 0.0
02/03:30pm 21.6 15.1 0.2 24 9.7 SW 24 39 13 21 1021.7 1021.3 0.0
02/03:00pm 21.8 15.5 1.5 26 9.4 SW 24 37 13 20 1021.6 1021.2 0.0
02/02:30pm 21.9 15.5 1.0 25 9.6 SSW 24 33 13 18 1021.8 1021.4 0.0
02/02:00pm 20.4 15.8 1.3 28 8.7 SSW 15 24 8 13 1021.9 1021.5 0.0
02/01:30pm 21.5 15.6 1.7 27 9.2 S 22 37 12 20 1022.4 1022.0 0.0
02/01:00pm 20.4 13.8 1.8 29 8.6 SSW 26 46 14 25 1022.6 1022.2 0.0
02/12:30pm 19.9 14.3 1.4 29 8.4 SSW 20 35 11 19 1022.7 1022.3 0.0
02/12:00pm 18.3 12.3 1.3 32 7.6 SSW 22 35 12 19 1022.9 1022.5 0.0
02/11:30am 18.1 11.0 1.6 33 7.5 SSW 28 43 15 23 1023.0 1022.6 0.0
02/11:00am 17.3 11.1 2.1 36 6.9 S 24 37 13 20 1022.9 1022.5 0.0
02/10:30am 17.1 11.2 1.9 36 6.8 S 22 32 12 17 1023.0 1022.6 0.0
02/10:00am 16.4 9.7 1.7 37 6.5 S 26 32 14 17 1022.9 1022.5 0.0
02/09:30am 16.2 10.6 3.3 42 5.9 SSW 22 35 12 19 1022.9 1022.5 0.0
02/09:00am 15.4 9.9 3.9 46 5.3 SW 22 32 12 17 1022.8 1022.4 0.8
02/08:30am 14.1 8.9 3.8 50 4.7 SW 20 33 11 18 1022.4 1022.0 0.8
02/08:00am 13.9 9.0 5.3 56 4.0 SW 20 28 11 15 1021.8 1021.4 0.8
02/07:30am 12.8 8.4 4.8 58 3.7 SW 17 26 9 14 1021.5 1021.1 0.8
02/07:00am 11.7 7.6 4.2 60 3.4 SW 15 22 8 12 1021.0 1020.6 0.8
02/06:30am 11.1 6.6 4.1 62 3.1 SW 17 22 9 12 1020.7 1020.3 0.8
02/06:00am 11.3 6.1 3.8 60 3.3 SW 20 30 11 16 1020.3 1019.9 0.8
02/05:30am 11.4 5.8 3.4 58 3.5 SSW 22 32 12 17 1019.8 1019.4 0.8
02/05:00am 10.7 6.4 3.3 60 3.2 SSW 15 24 8 13 1019.1 1018.8 0.8
02/04:30am 10.8 6.4 2.9 58 3.4 SSW 15 20 8 11 1018.9 1018.6 0.8
02/04:00am 11.2 6.1 2.8 56 3.7 SSW 19 24 10 13 1018.6 1018.3 0.8
02/03:30am 10.9 6.4 2.0 54 3.8 SW 15 19 8 10 1018.4 1018.1 0.8
02/03:00am 11.5 7.0 2.0 52 4.1 SW 15 24 8 13 1018.2 1017.9 0.8
02/02:30am 12.1 7.9 1.7 49 4.5 SW 13 20 7 11 1018.1 1017.8 0.8
02/02:00am 12.8 8.0 2.4 49 4.6 SW 17 22 9 12 1018.0 1017.7 0.8
02/01:30am 12.7 8.4 3.4 53 4.2 SW 15 19 8 10 1017.6 1017.3 0.8
02/01:00am 13.6 9.6 2.8 48 4.8 SW 13 19 7 10 1017.4 1017.1 0.8
02/12:30am 14.6 9.8 2.5 44 5.4 SW 17 24 9 13 1017.0 1016.6 0.8
02/12:00am 15.5 10.1 2.7 42 5.8 SW 20 30 11 16 1016.6 1016.2 0.8
 
Date/Time
EDT
Temp
°C
App
Temp
°C
Dew
Point
°C
Rel
Hum
%
Delta-T
°C
Wind Press
QNH
hPa
Press
MSL
hPa
Rain since
9am
mm
Dir  Spd
km/h
Gust
km/h
Spd
kts
Gust
kts
01/11:30pm 16.0 11.2 2.8 41 6.0 SW 17 24 9 13 1016.3 1015.9 0.8
01/11:00pm 17.2 10.0 0.4 32 7.3 WSW 28 37 15 20 1015.8 1015.4 0.8
01/10:30pm 17.8 10.5 0.0 30 7.8 WSW 28 43 15 23 1015.4 1015.0 0.8
01/10:00pm 18.7 10.8 0.8 30 8.0 W 32 43 17 23 1014.4 1014.0 0.8
01/09:30pm 19.6 12.5 1.6 30 8.2 W 28 39 15 21 1013.4 1013.0 0.8
01/09:00pm 20.3 13.0 2.2 30 8.4 WSW 30 44 16 24 1012.6 1012.2 0.8
01/08:30pm 21.4 14.2 3.1 30 8.7 W 30 43 16 23 1011.8 1011.4 0.8
01/08:00pm 22.4 17.0 4.5 31 8.8 W 22 35 12 19 1011.1 1010.7 0.8
01/07:30pm 22.5 17.0 5.9 34 8.4 W 24 32 13 17 1010.5 1010.1 0.8
01/07:00pm 22.8 14.4 5.7 33 8.7 W 39 52 21 28 1009.9 1009.6 0.8
01/06:30pm 24.4 16.3 7.1 33 9.1 WSW 39 57 21 31 1009.1 1008.7 0.8
01/06:00pm 25.1 19.9 10.2 39 8.3 W 28 46 15 25 1008.4 1008.0 0.8
01/05:30pm 25.9 20.3 11.6 40 8.2 W 32 52 17 28 1008.1 1007.7 0.8
01/05:28pm 25.3 19.6 11.1 41 8.0 W 32 52 17 28 1008.1 1007.7 0.8
01/05:25pm 25.5 21.0 12.7 45 7.4 W 28 44 15 24 1007.9 1007.5 0.8
01/05:00pm 23.0 22.6 18.1 74 3.1 NW 17 26 9 14 1008.2 1007.8 0.8
01/04:30pm 21.8 21.0 17.2 75 2.8 NW 17 24 9 13 1008.4 1008.0 0.8
01/04:00pm 21.2 20.2 16.6 75 2.8 NW 17 24 9 13 1008.2 1007.8 0.8
01/03:30pm 21.0 21.2 17.6 81 2.1 NW 13 19 7 10 1008.2 1007.8 0.8
01/03:00pm 20.8 19.6 16.0 74 2.9 WNW 17 30 9 16 1008.1 1007.7 0.8
01/02:30pm 21.1 21.7 16.9 77 2.6 N 9 19 5 10 1008.6 1008.2 0.8
01/02:00pm 20.5 21.0 16.5 78 2.4 E 9 13 5 7 1007.2 1006.8 0.6
01/01:50pm 20.4 21.3 16.0 76 2.6 E 6 11 3 6 1006.4 1006.0 0.6
01/01:30pm 20.9 20.7 15.7 72 3.1 SW 11 15 6 8 1008.6 1008.2 0.0
01/01:00pm 22.2 18.4 12.5 54 5.5 SW 24 39 13 21 1008.9 1008.5 0.0
01/12:30pm 25.2 15.3 8.2 34 9.1 WSW 50 69 27 37 1009.5 1009.1 0.0
01/12:19pm 26.9 17.1 6.9 28 10.6 WSW 48 67 26 36 1007.7 1007.3 0.0
01/12:13pm 27.7 18.0 5.9 25 11.4 W 46 61 25 33 1007.7 1007.3 0.0
01/12:05pm 30.2 22.3 6.1 22 12.8 WNW 37 61 20 33 1007.0 1006.6 0.0
01/12:00pm 31.0 25.6 8.1 24 12.7 WNW 26 52 14 28 1006.8 1006.4 0.0
01/11:58am 30.9 26.0 8.6 25 12.4 NW 24 50 13 27 1006.7 1006.3 0.0
01/11:30am 30.2 26.2 13.0 34 10.3 NNW 26 39 14 21 1006.3 1005.9 0.0
01/11:00am 29.4 26.0 13.6 38 9.5 NNE 24 30 13 16 1005.9 1005.5 0.0
01/10:30am 27.5 25.0 14.2 44 8.0 NNE 20 30 11 16 1005.2 1004.9 0.0
01/10:00am 27.3 24.4 14.0 44 8.0 NNE 22 32 12 17 1006.3 1006.0 0.0
01/09:30am 26.0 22.9 13.5 46 7.4 NNE 22 32 12 17 1006.6 1006.3 0.0
01/09:00am 25.0 22.4 13.9 50 6.6 NE 20 30 11 16 1005.7 1005.4 0.0
01/08:30am 23.1 20.4 13.6 55 5.5 NE 20 32 11 17 1005.9 1005.6 0.0
01/08:00am 22.2 19.4 13.3 57 5.2 NE 20 30 11 16 1005.3 1005.0 0.0
01/07:30am 20.7 17.8 12.9 61 4.5 NE 20 30 11 16 1005.7 1005.4 0.0
01/07:00am 19.8 17.1 12.8 64 4.0 NE 19 30 10 16 1005.9 1005.6 0.0
01/06:30am 18.7 16.3 12.5 67 3.5 NE 17 24 9 13 1005.9 1005.6 0.0
01/06:00am 18.9 16.4 12.4 66 3.7 NE 17 24 9 13 1006.1 1005.8 0.0
01/05:30am 19.0 16.1 12.3 65 3.8 NE 19 28 10 15 1005.7 1005.4 0.0
01/05:00am 18.8 16.2 12.1 65 3.7 NE 17 24 9 13 1005.2 1004.9 0.0
01/04:30am 18.7 16.4 11.8 64 3.8 NE 15 20 8 11 1005.4 1005.1 0.0
01/04:00am 18.5 16.5 11.6 64 3.8 NNE 13 19 7 10 1005.9 1005.6 0.0
01/03:30am 18.9 16.5 11.5 62 4.1 NE 15 24 8 13 1006.1 1005.8 0.0
01/03:00am 18.9 17.2 11.2 61 4.2 NE 11 15 6 8 1006.5 1006.2 0.0
01/02:30am 19.5 17.8 11.3 59 4.5 NNE 11 15 6 8 1006.7 1006.4 0.0
01/02:00am 20.2 18.1 11.1 56 5.0 NE 13 19 7 10 1006.8 1006.5 0.0
01/01:30am 20.6 18.8 11.0 54 5.3 NNE 11 15 6 8 1007.1 1006.8 0.0
01/01:00am 20.9 18.8 11.0 53 5.5 NE 13 17 7 9 1007.3 1007.0 0.0
01/12:30am 21.2 19.2 10.1 49 6.0 NE 11 13 6 7 1007.7 1007.4 0.0
01/12:00am 22.5 19.6 9.6 44 7.0 NE 15 20 8 11 1007.7 1007.4 0.0
 
Date/Time
EDT
Temp
°C
App
Temp
°C
Dew
Point
°C
Rel
Hum
%
Delta-T
°C
Wind Press
QNH
hPa
Press
MSL
hPa
Rain since
9am
mm
Dir  Spd
km/h
Gust
km/h
Spd
kts
Gust
kts
30/11:30pm 22.4 19.2 7.0 37 8.0 NE 13 19 7 10 1008.1 1007.8 0.0
30/11:00pm 17.8 17.6 9.2 57 4.5 CALM 0 0 0 0 1008.0 1007.7 0.0
30/10:30pm 18.9 18.1 6.4 44 6.3 CALM 0 0 0 0 1008.0 1007.7 0.0
30/10:00pm 20.8 19.9 6.0 38 7.5 CALM 0 0 0 0 1007.8 1007.5 0.0
30/09:30pm 20.9 19.6 4.0 33 8.2 CALM 0 0 0 0 1007.7 1007.4 0.0
30/09:00pm 24.4 21.9 4.7 28 9.9 N 7 7 4 4 1007.4 1007.1 0.0

Other formats

Comma delimited format used in spreadsheet applications
http://www.bom.gov.au/fwo/IDV60801/IDV60801.94875.axf

JavaScript Object Notation format (JSON) in row-major order
http://www.bom.gov.au/fwo/IDV60801/IDV60801.94875.json

Data quality

Most of these data are generated automatically and are frequently updated. Quality checks on data are not normally performed. It is possible for incorrect values to appear. Refer to information at About Latest Weather Observations and please check the disclaimer before using these data.